< < Back
Terminal Aerodrome Forecast


Current Version              Previous Versions:   1  2  3  4  5  6  7  8  9  

Terminal Aerodrome Forecast

484
FTUS42 KTAE 272300
TAFVLD
TAF
KVLD 272320Z 2800/2824 00000KT P6SM SKC
     FM281400 03005KT P6SM SKC=

Latest METAR

456
SAUS70 KWBC 281600 RRH
MTRVLD
METAR KVLD 281553Z 02007KT 10SM CLR 08/M02 A3041 RMK AO2 SLP306
T00781017


USA.gov is the U.S. government's official web portal to all federal, state and local government web resources and services.